Time;durP1;ratioP1;P1;durP2;ratioP2;P2;SDS_P1;SDS_P2;PMS_P1;PMS_P2;Temp;Humidity;BMP_temperature;BMP_pressure;BME280_temperature;BME280_humidity;BME280_pressure;Samples;Min_cycle;Max_cycle;Signal;HPM_P1;HPM_P2
2023/01/17 04:00:29;;;;;;;0.10;0.10;;;16.10;49.50;;;;;;6071130;23;46066;31
2023/01/17 04:02:54;;;;;;;0.52;0.20;;;16.00;49.40;;;;;;4888287;23;46121;-74
2023/01/17 04:05:20;;;;;;;0.35;0.30;;;16.00;49.50;;;;;;4887681;28;45480;-75
2023/01/17 04:07:45;;;;;;;0.28;0.20;;;16.00;49.50;;;;;;4903342;28;45217;-75
2023/01/17 04:10:11;;;;;;;0.20;0.20;;;16.00;49.50;;;;;;4900406;28;45270;-75
2023/01/17 04:12:37;;;;;;;0.30;0.20;;;16.00;49.50;;;;;;4885454;28;45340;-75
2023/01/17 04:15:03;;;;;;;0.20;0.20;;;15.90;49.50;;;;;;4884490;23;45500;-59
2023/01/17 04:17:28;;;;;;;0.15;0.10;;;15.90;49.50;;;;;;4874789;28;45780;-60
2023/01/17 04:19:54;;;;;;;0.10;0.10;;;15.90;49.50;;;;;;4871263;28;45424;-60
2023/01/17 04:22:20;;;;;;;0.15;0.15;;;15.90;49.50;;;;;;4856142;28;45523;-60
2023/01/17 04:24:45;;;;;;;0.20;0.20;;;15.90;49.50;;;;;;4858088;29;45306;-56
2023/01/17 04:27:13;;;;;;;0.15;0.15;;;15.90;49.50;;;;;;4876232;28;45325;-56
2023/01/17 04:29:39;;;;;;;0.17;0.10;;;15.90;49.50;;;;;;4877610;29;45444;-54
2023/01/17 04:32:04;;;;;;;0.17;0.10;;;15.90;49.50;;;;;;4873149;29;44826;-55
2023/01/17 04:34:30;;;;;;;0.70;0.20;;;15.90;49.50;;;;;;4862441;29;45703;-57
2023/01/17 04:36:55;;;;;;;0.43;0.32;;;15.90;49.50;;;;;;4858083;29;45331;-57
2023/01/17 04:39:21;;;;;;;0.20;0.20;;;15.90;49.50;;;;;;4855472;29;45700;-58
2023/01/17 04:41:46;;;;;;;0.17;0.17;;;15.90;49.50;;;;;;4859491;29;45436;-54
2023/01/17 04:44:12;;;;;;;0.25;0.13;;;15.80;49.50;;;;;;4859676;29;46946;-57
2023/01/17 04:46:37;;;;;;;0.22;0.20;;;15.90;49.60;;;;;;4861217;29;45500;-58
2023/01/17 04:49:03;;;;;;;0.17;0.10;;;15.80;49.50;;;;;;4875689;29;45235;-59
2023/01/17 04:51:29;;;;;;;0.45;0.20;;;15.80;49.60;;;;;;4842719;29;45218;-58
2023/01/17 04:53:54;;;;;;;0.10;0.10;;;15.80;49.60;;;;;;4854743;29;46521;-56
2023/01/17 04:56:20;;;;;;;0.28;0.20;;;15.80;49.60;;;;;;4874917;29;45238;-58
2023/01/17 04:58:46;;;;;;;0.20;0.20;;;15.80;49.60;;;;;;4874821;29;45435;-60
2023/01/17 05:01:11;;;;;;;0.40;0.30;;;15.80;49.70;;;;;;4858446;29;45340;-57
2023/01/17 05:03:37;;;;;;;0.40;0.30;;;15.80;49.70;;;;;;4873299;29;45761;-59
2023/01/17 05:06:02;;;;;;;0.30;0.22;;;15.80;49.70;;;;;;4873387;29;45185;-57
2023/01/17 05:08:28;;;;;;;0.20;0.20;;;15.80;49.70;;;;;;4877198;29;45538;-58
2023/01/17 05:10:53;;;;;;;0.20;0.20;;;15.70;49.60;;;;;;4857739;29;45600;-56
2023/01/17 05:13:19;;;;;;;0.30;0.20;;;15.70;49.70;;;;;;4857284;29;47638;-55
2023/01/17 05:15:45;;;;;;;0.30;0.20;;;15.70;49.60;;;;;;4872550;29;45685;-56
2023/01/17 05:18:12;;;;;;;0.20;0.20;;;15.70;49.60;;;;;;4845053;29;45418;-55
2023/01/17 05:20:38;;;;;;;0.50;0.30;;;15.70;49.60;;;;;;4874342;29;45568;-55
2023/01/17 05:23:03;;;;;;;0.30;0.10;;;15.70;49.70;;;;;;4844273;29;45461;-58
2023/01/17 05:25:30;;;;;;;0.35;0.30;;;15.70;49.70;;;;;;4872484;29;45385;-57
2023/01/17 05:27:56;;;;;;;0.20;0.20;;;15.70;49.70;;;;;;4853541;29;45746;-58
2023/01/17 05:30:21;;;;;;;0.20;0.20;;;15.70;49.70;;;;;;4861348;29;45487;-58
2023/01/17 05:32:48;;;;;;;0.10;0.10;;;15.60;49.60;;;;;;4859908;29;46607;-57
2023/01/17 05:35:15;;;;;;;0.40;0.20;;;15.60;49.60;;;;;;4870295;29;45510;-57
2023/01/17 05:37:47;;;;;;;0.20;0.20;;;15.60;49.60;;;;;;4871622;29;45006;-56
2023/01/17 05:40:16;;;;;;;0.40;0.10;;;15.60;49.70;;;;;;4868167;29;45607;-59
2023/01/17 05:42:49;;;;;;;0.20;0.20;;;15.60;49.70;;;;;;4856775;29;46953;-57
2023/01/17 05:45:15;;;;;;;0.20;0.20;;;15.60;49.80;;;;;;4868429;29;45404;-56
2023/01/17 05:47:42;;;;;;;0.30;0.30;;;15.60;49.80;;;;;;4854918;29;46096;-53
2023/01/17 05:50:12;;;;;;;0.20;0.20;;;15.60;49.70;;;;;;4874288;29;45252;-56
2023/01/17 05:52:37;;;;;;;0.15;0.15;;;15.60;49.70;;;;;;4869892;29;45482;-58
2023/01/17 05:55:05;;;;;;;0.38;0.30;;;15.60;49.80;;;;;;4870153;29;45629;-58
2023/01/17 05:57:31;;;;;;;0.32;0.20;;;15.60;49.80;;;;;;4873847;29;44977;-58
2023/01/17 05:59:56;;;;;;;0.20;0.20;;;15.60;49.80;;;;;;4853764;29;45614;-57
2023/01/17 06:02:22;;;;;;;0.30;0.13;;;15.60;49.80;;;;;;4870152;29;45940;-55
2023/01/17 06:04:47;;;;;;;0.52;0.30;;;15.60;49.80;;;;;;4857443;29;45206;-57
2023/01/17 06:07:13;;;;;;;0.30;0.20;;;15.50;49.80;;;;;;4869254;29;45416;-56
2023/01/17 06:09:38;;;;;;;0.20;0.20;;;15.50;49.80;;;;;;4858068;29;45749;-60
2023/01/17 06:12:04;;;;;;;0.13;0.10;;;15.50;49.80;;;;;;4859997;29;46438;-56
2023/01/17 06:14:30;;;;;;;0.10;0.10;;;15.50;49.80;;;;;;4873959;29;45608;-59
2023/01/17 06:16:55;;;;;;;0.40;0.17;;;15.50;49.80;;;;;;4873753;29;45629;-54
2023/01/17 06:19:21;;;;;;;0.60;0.20;;;15.50;49.80;;;;;;4875393;29;45422;-58
2023/01/17 06:21:46;;;;;;;0.22;0.15;;;15.50;49.80;;;;;;4875517;29;46070;-57
2023/01/17 06:24:12;;;;;;;0.13;0.10;;;15.50;49.80;;;;;;4876458;29;45596;-58
2023/01/17 06:26:38;;;;;;;0.68;0.40;;;15.50;49.80;;;;;;4872728;29;45615;-55
2023/01/17 06:29:03;;;;;;;0.28;0.20;;;15.50;49.80;;;;;;4857555;29;45378;-61
2023/01/17 06:31:29;;;;;;;0.10;0.10;;;15.50;49.80;;;;;;4872871;29;46722;-56
2023/01/17 06:33:54;;;;;;;0.10;0.10;;;15.40;49.80;;;;;;4878877;29;45276;-58
2023/01/17 06:36:20;;;;;;;0.28;0.20;;;15.50;49.90;;;;;;4877841;29;46272;-59
2023/01/17 06:38:50;;;;;;;0.20;0.20;;;15.40;49.80;;;;;;4856847;29;45346;-55
2023/01/17 06:41:15;;;;;;;0.28;0.20;;;15.40;49.90;;;;;;4859261;29;45511;-56
2023/01/17 06:43:41;;;;;;;0.28;0.20;;;15.40;49.90;;;;;;4863519;29;45437;-59
2023/01/17 06:46:06;;;;;;;0.32;0.20;;;15.40;49.80;;;;;;4880353;29;45197;-56
2023/01/17 06:48:32;;;;;;;0.22;0.20;;;15.40;49.80;;;;;;4879506;29;45146;-58
2023/01/17 06:50:57;;;;;;;0.20;0.20;;;15.40;49.80;;;;;;4874443;29;45303;-54
2023/01/17 06:53:23;;;;;;;0.25;0.25;;;15.40;49.90;;;;;;4873625;29;45256;-63
2023/01/17 06:55:49;;;;;;;2.45;0.40;;;15.30;48.80;;;;;;4860633;29;45706;-58
2023/01/17 06:58:14;;;;;;;1.05;0.70;;;15.20;46.70;;;;;;4858094;29;45553;-56
2023/01/17 07:00:40;;;;;;;1.65;0.70;;;14.90;45.50;;;;;;4873891;29;47225;-55
2023/01/17 07:03:09;;;;;;;0.55;0.55;;;14.80;45.70;;;;;;4856796;29;45696;-56
2023/01/17 07:05:35;;;;;;;0.68;0.57;;;14.80;46.10;;;;;;4860562;29;44904;-52
2023/01/17 07:08:01;;;;;;;2.95;0.63;;;14.80;47.00;;;;;;4878031;29;45170;-55
2023/01/17 07:10:26;;;;;;;1.10;0.60;;;15.00;47.30;;;;;;4859340;29;45423;-53
2023/01/17 07:12:57;;;;;;;3.13;0.50;;;15.20;47.20;;;;;;4878237;29;45436;-54
2023/01/17 07:15:23;;;;;;;0.50;0.40;;;15.40;46.90;;;;;;4880925;29;45685;-54
2023/01/17 07:17:48;;;;;;;0.93;0.45;;;15.60;46.80;;;;;;4862734;29;45172;-57
2023/01/17 07:20:14;;;;;;;0.75;0.30;;;15.80;46.70;;;;;;4861205;29;45371;-54
2023/01/17 07:22:43;;;;;;;0.30;0.30;;;16.00;46.50;;;;;;4874646;29;45293;-56
2023/01/17 07:25:09;;;;;;;0.43;0.30;;;16.10;46.40;;;;;;4863376;29;45151;-55
2023/01/17 07:27:34;;;;;;;0.63;0.40;;;16.30;46.30;;;;;;4879007;29;45365;-57
2023/01/17 07:30:00;;;;;;;1.05;0.40;;;16.40;46.10;;;;;;4857647;29;45258;-58
2023/01/17 07:32:26;;;;;;;0.43;0.30;;;16.60;46.10;;;;;;4857228;29;45337;-56
2023/01/17 07:34:52;;;;;;;0.50;0.40;;;16.80;46.00;;;;;;4876267;29;45108;-57
2023/01/17 07:37:18;;;;;;;0.30;0.20;;;16.90;45.90;;;;;;4859628;29;45272;-60
2023/01/17 07:39:44;;;;;;;0.43;0.20;;;17.10;45.80;;;;;;4879118;29;45543;-59
2023/01/17 07:42:10;;;;;;;0.17;0.15;;;17.20;45.70;;;;;;4874187;29;44719;-55
2023/01/17 07:44:35;;;;;;;0.20;0.20;;;17.30;45.70;;;;;;4877865;29;45147;-61
2023/01/17 07:47:01;;;;;;;0.68;0.22;;;17.50;45.60;;;;;;4859027;29;45510;-54
2023/01/17 07:49:26;;;;;;;0.93;0.30;;;17.60;45.60;;;;;;4858106;29;45997;-56
2023/01/17 07:51:54;;;;;;;0.85;0.22;;;17.70;45.50;;;;;;4875663;29;44906;-55
2023/01/17 07:54:19;;;;;;;0.30;0.20;;;17.90;45.40;;;;;;4872127;29;45707;-54
2023/01/17 07:56:46;;;;;;;0.30;0.13;;;18.00;45.30;;;;;;4860959;29;45391;-56
2023/01/17 07:59:12;;;;;;;0.10;0.10;;;18.00;45.20;;;;;;4878033;29;45255;-55
2023/01/17 08:01:37;;;;;;;0.40;0.25;;;18.10;45.30;;;;;;4827230;29;45355;-54
2023/01/17 08:04:03;;;;;;;0.30;0.20;;;18.10;45.30;;;;;;4876591;29;45067;-54
2023/01/17 08:06:28;;;;;;;0.40;0.40;;;18.20;45.40;;;;;;4875184;29;45566;-58
2023/01/17 08:08:57;;;;;;;0.73;0.30;;;18.40;45.40;;;;;;4857942;29;45524;-56
2023/01/17 08:11:23;;;;;;;0.73;0.30;;;18.50;45.20;;;;;;4873760;29;45402;-58
2023/01/17 08:13:49;;;;;;;0.63;0.20;;;18.60;45.10;;;;;;4859474;29;44944;-57
2023/01/17 08:16:15;;;;;;;0.20;0.20;;;18.80;45.00;;;;;;4876764;29;44764;-58
2023/01/17 08:18:40;;;;;;;0.63;0.28;;;18.90;44.90;;;;;;4878327;29;45769;-56
2023/01/17 08:21:13;;;;;;;2.47;0.20;;;19.00;44.80;;;;;;4875496;29;45387;-58
2023/01/17 08:23:38;;;;;;;0.25;0.20;;;19.20;44.60;;;;;;4844023;29;45548;-57
2023/01/17 08:26:04;;;;;;;0.20;0.20;;;19.30;44.60;;;;;;4854184;29;45534;-51
2023/01/17 08:28:29;;;;;;;0.20;0.20;;;19.40;44.50;;;;;;4876071;29;45593;-58
2023/01/17 08:30:55;;;;;;;3.15;0.30;;;19.60;44.40;;;;;;4875739;29;45438;-54
2023/01/17 08:33:21;;;;;;;0.68;0.30;;;19.60;44.30;;;;;;4878251;29;45300;-58
2023/01/17 08:35:51;;;;;;;0.75;0.20;;;19.80;44.20;;;;;;4873940;29;45177;-54
2023/01/17 08:38:16;;;;;;;0.60;0.20;;;19.90;44.00;;;;;;4876315;29;45659;-54
2023/01/17 08:40:42;;;;;;;0.55;0.28;;;20.00;44.00;;;;;;4873995;29;45222;-54
2023/01/17 08:43:08;;;;;;;0.20;0.20;;;20.10;43.90;;;;;;4872864;29;45524;-57
2023/01/17 08:45:33;;;;;;;0.17;0.17;;;20.20;43.80;;;;;;4871985;29;45187;-57
2023/01/17 08:47:59;;;;;;;0.95;0.20;;;20.30;43.80;;;;;;4873851;29;45362;-53
2023/01/17 08:50:25;;;;;;;0.10;0.10;;;20.40;43.60;;;;;;4873173;29;45022;-57
2023/01/17 08:52:56;;;;;;;0.47;0.20;;;20.50;43.60;;;;;;4857984;29;45204;-53
2023/01/17 08:55:21;;;;;;;0.50;0.15;;;20.60;43.40;;;;;;4860516;29;44698;-53
2023/01/17 08:57:47;;;;;;;0.17;0.13;;;20.70;43.40;;;;;;4860572;29;45537;-57
2023/01/17 09:00:13;;;;;;;2.42;0.20;;;20.80;43.30;;;;;;4874928;29;45587;-57
2023/01/17 09:02:38;;;;;;;1.50;0.15;;;20.90;43.30;;;;;;4855559;29;45574;-53
2023/01/17 09:05:04;;;;;;;0.88;0.20;;;20.80;43.30;;;;;;4876032;29;44983;-57
2023/01/17 09:07:30;;;;;;;0.20;0.20;;;20.80;43.40;;;;;;4858727;29;46029;-56
2023/01/17 09:09:55;;;;;;;0.20;0.20;;;20.90;43.50;;;;;;4860125;29;45385;-53
2023/01/17 09:12:21;;;;;;;0.52;0.30;;;21.00;43.40;;;;;;4844324;29;45195;-58
2023/01/17 09:14:47;;;;;;;0.65;0.28;;;21.10;43.40;;;;;;4874813;29;45452;-55
2023/01/17 09:17:13;;;;;;;0.35;0.25;;;21.10;43.30;;;;;;4857504;29;45591;-57
2023/01/17 09:19:42;;;;;;;0.20;0.10;;;21.30;43.30;;;;;;4856848;29;45245;-56
2023/01/17 09:22:08;;;;;;;0.20;0.20;;;21.40;43.10;;;;;;4876113;29;45502;-57
2023/01/17 09:24:34;;;;;;;0.30;0.20;;;21.40;43.00;;;;;;4856135;29;45207;-55
2023/01/17 09:27:00;;;;;;;0.30;0.30;;;21.50;42.90;;;;;;4860365;29;47657;-55
2023/01/17 09:29:26;;;;;;;0.20;0.20;;;21.60;42.80;;;;;;4874622;29;45357;-58
2023/01/17 09:31:51;;;;;;;0.10;0.10;;;21.70;42.80;;;;;;4856834;29;45308;-59
2023/01/17 09:34:17;;;;;;;0.25;0.20;;;21.80;42.80;;;;;;4871464;29;45328;-54
2023/01/17 09:36:43;;;;;;;0.20;0.20;;;21.80;42.70;;;;;;4875292;29;46243;-61
2023/01/17 09:39:09;;;;;;;0.22;0.20;;;21.80;42.70;;;;;;4872766;29;45630;-54
2023/01/17 09:41:56;;;;;;;0.20;0.20;;;21.90;42.70;;;;;;4853786;29;45797;-60
2023/01/17 09:44:25;;;;;;;0.52;0.17;;;22.00;42.20;;;;;;4875973;29;45484;-60
2023/01/17 09:46:53;;;;;;;0.55;0.20;;;22.00;42.60;;;;;;4838998;29;45577;-54
2023/01/17 09:49:31;;;;;;;0.10;0.10;;;22.10;42.60;;;;;;4831631;29;45219;-59
2023/01/17 09:51:56;;;;;;;0.10;0.10;;;22.10;43.00;;;;;;4858449;29;44972;-55
2023/01/17 09:54:23;;;;;;;0.35;0.17;;;22.20;42.50;;;;;;4875318;29;45552;-53
2023/01/17 09:57:08;;;;;;;0.10;0.10;;;22.20;42.40;;;;;;4850045;29;45412;-58
2023/01/17 09:59:45;;;;;;;0.52;0.20;;;22.30;42.00;;;;;;4873359;29;45748;-56
2023/01/17 10:02:37;;;;;;;0.32;0.20;;;22.30;42.30;;;;;;4852028;29;44985;-55
2023/01/17 10:05:24;;;;;;;0.57;0.20;;;22.40;42.00;;;;;;4877984;29;45481;-55
2023/01/17 10:08:02;;;;;;;0.30;0.20;;;22.40;41.90;;;;;;4873387;29;46150;-59
2023/01/17 10:11:12;;;;;;;0.17;0.17;;;22.50;42.20;;;;;;4857256;29;45124;-59
2023/01/17 10:13:44;;;;;;;0.15;0.15;;;22.50;41.80;;;;;;4853352;29;45594;-57
2023/01/17 10:16:26;;;;;;;0.40;0.20;;;22.60;42.20;;;;;;4849197;29;45373;-58
2023/01/17 10:19:30;;;;;;;0.10;0.10;;;22.60;41.80;;;;;;4856493;29;46888;-53
2023/01/17 10:22:18;;;;;;;0.20;0.20;;;22.70;41.80;;;;;;4872020;29;45321;-61
2023/01/17 10:25:07;;;;;;;0.32;0.10;;;22.80;41.90;;;;;;4855067;29;45442;-58
2023/01/17 10:27:36;;;;;;;0.30;0.20;;;22.80;41.80;;;;;;4854391;29;45573;-58
2023/01/17 10:30:02;;;;;;;0.10;0.10;;;22.80;42.10;;;;;;4842146;29;46182;-57
2023/01/17 10:32:28;;;;;;;1.02;0.25;;;22.90;42.10;;;;;;4855731;29;45331;-57
2023/01/17 10:35:02;;;;;;;1.75;0.40;;;23.00;42.10;;;;;;4840991;29;45276;-60
2023/01/17 10:37:42;;;;;;;0.20;0.20;;;23.00;42.00;;;;;;4841513;29;45010;-57
2023/01/17 10:40:41;;;;;;;0.10;0.10;;;23.00;41.90;;;;;;4871166;29;45549;-58
2023/01/17 10:43:21;;;;;;;0.20;0.20;;;23.10;41.60;;;;;;4851070;29;45374;-59
2023/01/17 10:45:56;;;;;;;0.25;0.20;;;23.10;42.00;;;;;;4855862;29;45337;-55
2023/01/17 10:48:42;;;;;;;0.20;0.20;;;23.10;41.80;;;;;;4858884;29;45467;-54
2023/01/17 10:51:29;;;;;;;0.20;0.20;;;23.20;41.60;;;;;;4846047;29;46629;-59
2023/01/17 10:54:10;;;;;;;0.30;0.10;;;23.20;41.60;;;;;;4847239;29;45519;-54
2023/01/17 10:56:36;;;;;;;0.17;0.10;;;23.20;41.50;;;;;;4867025;29;46181;-57
2023/01/17 10:59:14;;;;;;;0.30;0.10;;;23.20;41.80;;;;;;4859494;29;46272;-54
2023/01/17 11:01:40;;;;;;;0.20;0.10;;;23.30;41.60;;;;;;4866710;29;45700;-58
2023/01/17 11:04:18;;;;;;;0.10;0.10;;;23.30;41.80;;;;;;4853906;29;45464;-58
2023/01/17 11:06:46;;;;;;;0.40;0.30;;;23.40;41.50;;;;;;4855128;29;45261;-63
2023/01/17 11:09:11;;;;;;;0.10;0.10;;;23.40;41.70;;;;;;4850465;29;44983;-53
2023/01/17 11:11:44;;;;;;;0.45;0.20;;;23.40;41.60;;;;;;4852015;29;45621;-58
2023/01/17 11:14:36;;;;;;;0.13;0.13;;;23.50;41.50;;;;;;4851024;29;44765;-59
2023/01/17 11:17:03;;;;;;;0.00;0.00;;;23.50;41.10;;;;;;4851937;29;45470;-55
2023/01/17 11:19:30;;;;;;;0.20;0.20;;;23.50;41.60;;;;;;4848658;29;45312;-57
2023/01/17 11:22:00;;;;;;;0.20;0.20;;;23.50;41.50;;;;;;4866509;29;45239;-54
2023/01/17 11:24:35;;;;;;;0.55;0.25;;;23.50;41.40;;;;;;4852568;29;45752;-56
2023/01/17 11:27:05;;;;;;;0.20;0.20;;;23.60;41.30;;;;;;4848930;29;45951;-58
2023/01/17 11:29:37;;;;;;;0.10;0.10;;;23.60;41.50;;;;;;4869683;29;45216;-52
2023/01/17 11:32:21;;;;;;;0.10;0.10;;;23.60;41.30;;;;;;4868431;29;47197;-55
2023/01/17 11:35:11;;;;;;;0.20;0.20;;;23.70;41.10;;;;;;4870898;29;45460;-55
2023/01/17 11:37:37;;;;;;;0.28;0.10;;;23.70;41.10;;;;;;4869070;29;45578;-53
2023/01/17 11:40:13;;;;;;;0.30;0.30;;;23.70;41.50;;;;;;4851161;29;45417;-55
2023/01/17 11:42:38;;;;;;;0.40;0.20;;;23.70;41.40;;;;;;4868720;29;45572;-54
2023/01/17 11:45:22;;;;;;;0.22;0.22;;;23.70;41.40;;;;;;4870404;29;45056;-54
2023/01/17 11:47:48;;;;;;;0.20;0.20;;;23.70;41.00;;;;;;4869124;29;45272;-56
2023/01/17 11:50:24;;;;;;;0.20;0.20;;;23.70;41.40;;;;;;4870430;29;45233;-58
2023/01/17 11:52:49;;;;;;;0.25;0.20;;;23.70;41.10;;;;;;4850944;29;45452;-50
2023/01/17 11:55:15;;;;;;;0.40;0.20;;;23.60;41.30;;;;;;4850015;29;44720;-60
2023/01/17 11:57:41;;;;;;;0.40;0.30;;;23.60;41.30;;;;;;4846197;29;45247;-58
2023/01/17 12:00:10;;;;;;;0.20;0.20;;;23.60;41.30;;;;;;4852569;29;45751;-62
2023/01/17 12:02:36;;;;;;;0.13;0.13;;;23.60;41.30;;;;;;4866934;29;46050;-54
2023/01/17 12:05:08;;;;;;;0.70;0.25;;;23.50;41.30;;;;;;4868785;29;45686;-54
2023/01/17 12:07:39;;;;;;;0.10;0.10;;;23.60;41.40;;;;;;4866054;29;45179;-56
2023/01/17 12:10:11;;;;;;;0.40;0.30;;;23.50;41.40;;;;;;4851464;29;45351;-56
2023/01/17 12:15:39;;;;;;;0.10;0.10;;;23.60;41.50;;;;;;4870094;29;45710;-51
2023/01/17 12:18:29;;;;;;;0.10;0.10;;;23.60;41.10;;;;;;4853069;29;44761;-55
2023/01/17 12:21:16;;;;;;;0.20;0.10;;;23.60;41.20;;;;;;4869636;29;45877;-57
2023/01/17 12:23:42;;;;;;;0.40;0.20;;;23.70;41.10;;;;;;4868940;29;45178;-56
2023/01/17 12:26:29;;;;;;;0.55;0.20;;;23.70;41.40;;;;;;4868315;29;45311;-57
2023/01/17 12:28:57;;;;;;;0.20;0.20;;;23.70;41.10;;;;;;4853028;29;45247;-57
2023/01/17 12:31:35;;;;;;;0.20;0.20;;;23.70;41.30;;;;;;4848599;29;45310;-66
2023/01/17 12:34:03;;;;;;;0.40;0.20;;;23.80;41.10;;;;;;4836279;29;45750;-52
2023/01/17 12:36:51;;;;;;;0.10;0.10;;;23.80;41.30;;;;;;4868661;29;45330;-58
2023/01/17 12:39:17;;;;;;;0.20;0.20;;;23.90;40.90;;;;;;4868665;29;45376;-59
2023/01/17 12:42:12;;;;;;;0.13;0.13;;;23.90;41.20;;;;;;4866655;29;45245;-58
2023/01/17 12:44:53;;;;;;;0.20;0.15;;;23.90;40.80;;;;;;4848200;29;45672;-53
2023/01/17 12:47:19;;;;;;;0.20;0.20;;;24.00;41.00;;;;;;4851623;29;45419;-58
2023/01/17 12:49:53;;;;;;;0.22;0.20;;;24.00;41.10;;;;;;4863774;29;46116;-55
2023/01/17 12:52:34;;;;;;;0.10;0.10;;;24.00;41.10;;;;;;4847915;29;46245;-60
2023/01/17 12:55:02;;;;;;;0.20;0.20;;;24.00;41.00;;;;;;4864022;29;46326;-52
2023/01/17 12:57:33;;;;;;;0.20;0.20;;;24.00;41.00;;;;;;4862492;29;44987;-54
2023/01/17 13:00:05;;;;;;;0.20;0.20;;;24.00;41.00;;;;;;4851513;29;45748;-57
2023/01/17 13:02:47;;;;;;;0.30;0.20;;;24.00;41.00;;;;;;4836122;29;46212;-59
2023/01/17 13:05:17;;;;;;;0.20;0.20;;;24.00;41.00;;;;;;4859763;29;45490;-56
2023/01/17 13:08:01;;;;;;;0.10;0.10;;;24.00;41.00;;;;;;4846528;29;45755;-55
2023/01/17 13:10:34;;;;;;;0.55;0.30;;;24.00;40.90;;;;;;4867303;29;45724;-56
2023/01/17 13:13:13;;;;;;;0.52;0.35;;;24.10;41.00;;;;;;4864096;29;45695;-50
2023/01/17 13:15:39;;;;;;;0.17;0.17;;;24.10;41.10;;;;;;4853271;29;46355;-53
2023/01/17 13:18:16;;;;;;;0.20;0.20;;;24.10;41.10;;;;;;4849978;29;44811;-56
2023/01/17 13:20:47;;;;;;;0.10;0.10;;;24.10;41.00;;;;;;4862857;29;45573;-54
2023/01/17 13:23:21;;;;;;;2.47;0.20;;;24.10;41.00;;;;;;4848443;29;45516;-55
2023/01/17 13:25:48;;;;;;;0.20;0.20;;;24.10;41.10;;;;;;4849631;29;46357;-52
2023/01/17 13:28:23;;;;;;;0.22;0.20;;;24.10;41.10;;;;;;4849526;29;45310;-54
2023/01/17 13:30:59;;;;;;;0.20;0.20;;;24.20;41.10;;;;;;4869722;29;45268;-52
2023/01/17 13:33:31;;;;;;;0.15;0.15;;;24.20;41.10;;;;;;4850459;29;45741;-55
2023/01/17 13:36:07;;;;;;;0.82;0.20;;;24.20;41.10;;;;;;4845933;29;45755;-57
2023/01/17 13:38:53;;;;;;;0.20;0.20;;;24.20;41.10;;;;;;4850002;29;45221;-56
2023/01/17 13:41:40;;;;;;;0.55;0.25;;;24.20;41.00;;;;;;4868060;29;45394;-55
2023/01/17 13:44:26;;;;;;;0.43;0.20;;;24.30;41.00;;;;;;4869119;29;45893;-57
2023/01/17 13:47:02;;;;;;;0.30;0.20;;;24.30;41.10;;;;;;4867951;29;45497;-57
2023/01/17 13:49:28;;;;;;;0.15;0.15;;;24.30;41.00;;;;;;4870276;29;45633;-55
2023/01/17 13:52:04;;;;;;;0.22;0.10;;;24.30;41.10;;;;;;4867455;29;45270;-55
2023/01/17 13:54:30;;;;;;;0.10;0.10;;;24.30;41.00;;;;;;4868583;29;45480;-55
2023/01/17 13:57:24;;;;;;;0.50;0.15;;;24.30;41.10;;;;;;4867735;29;47113;-55
2023/01/17 13:59:53;;;;;;;0.35;0.15;;;24.30;40.90;;;;;;4870992;29;46218;-57
2023/01/17 14:02:31;;;;;;;0.40;0.10;;;24.30;41.10;;;;;;4867607;29;46128;-59
2023/01/17 14:05:05;;;;;;;0.22;0.20;;;24.40;41.00;;;;;;4869470;29;44762;-61
2023/01/17 14:07:32;;;;;;;0.20;0.10;;;24.40;41.10;;;;;;4866685;29;45464;-57
2023/01/17 14:09:57;;;;;;;0.40;0.25;;;24.40;41.20;;;;;;4852075;29;45176;-60
2023/01/17 14:12:25;;;;;;;0.47;0.17;;;24.40;41.20;;;;;;4848853;29;45013;-55
2023/01/17 14:14:55;;;;;;;0.20;0.10;;;24.40;41.20;;;;;;4867433;29;45350;-57
2023/01/17 14:17:21;;;;;;;0.20;0.20;;;24.40;41.20;;;;;;4852573;29;45529;-53
2023/01/17 14:20:17;;;;;;;0.30;0.20;;;24.40;41.20;;;;;;4866928;28;45316;-54
2023/01/17 14:22:49;;;;;;;0.20;0.15;;;24.40;41.00;;;;;;4848762;29;45888;-59
2023/01/17 14:25:16;;;;;;;0.00;0.00;;;24.40;41.20;;;;;;4852707;29;45295;-54
2023/01/17 14:27:42;;;;;;;0.32;0.17;;;24.50;41.20;;;;;;4844523;29;45335;-55
2023/01/17 14:30:21;;;;;;;0.80;0.20;;;24.40;41.20;;;;;;4867701;29;45235;-54
2023/01/17 14:33:03;;;;;;;0.55;0.20;;;24.50;41.10;;;;;;4870734;29;45291;-55
2023/01/17 14:35:40;;;;;;;0.10;0.10;;;24.50;41.10;;;;;;4869744;29;45374;-58
2023/01/17 14:38:30;;;;;;;0.43;0.10;;;24.50;41.20;;;;;;4854420;29;46394;-55
2023/01/17 14:41:02;;;;;;;0.35;0.20;;;24.50;41.10;;;;;;4872971;29;44971;-55
2023/01/17 14:43:31;;;;;;;0.10;0.10;;;24.50;41.20;;;;;;4850615;29;45212;-63
2023/01/17 14:45:59;;;;;;;0.10;0.10;;;24.50;41.20;;;;;;4855973;29;45225;-53
2023/01/17 14:48:25;;;;;;;0.20;0.10;;;24.50;41.30;;;;;;4872687;29;45382;-56
2023/01/17 14:50:53;;;;;;;0.13;0.10;;;24.40;41.40;;;;;;4851375;29;45598;-57
2023/01/17 14:53:28;;;;;;;0.28;0.10;;;24.40;41.50;;;;;;4872722;29;45240;-53
2023/01/17 14:55:59;;;;;;;0.52;0.20;;;24.40;41.40;;;;;;4869951;29;45909;-54
2023/01/17 14:58:32;;;;;;;0.10;0.10;;;24.40;41.50;;;;;;4869982;29;45462;-53
2023/01/17 15:00:57;;;;;;;;;;;24.50;41.50;;;;;;4852296;29;45518;-51
2023/01/17 15:03:23;;;;;;;0.28;0.20;;;24.40;41.30;;;;;;4872534;29;46136;-59
2023/01/17 15:05:50;;;;;;;0.20;0.20;;;24.50;41.50;;;;;;4869548;29;45466;-54
2023/01/17 15:08:18;;;;;;;0.13;0.13;;;24.60;42.10;;;;;;4871096;29;45574;-51
2023/01/17 15:10:54;;;;;;;0.10;0.10;;;24.60;41.40;;;;;;4870449;29;45267;-55
2023/01/17 15:13:30;;;;;;;0.17;0.17;;;24.60;41.30;;;;;;4871470;29;45613;-53
2023/01/17 15:16:04;;;;;;;1.75;0.10;;;24.60;41.30;;;;;;4870307;29;45807;-53
2023/01/17 15:18:36;;;;;;;0.10;0.10;;;24.60;41.40;;;;;;4869388;29;45600;-54
2023/01/17 15:21:06;;;;;;;0.63;0.20;;;24.70;41.40;;;;;;4871524;29;45358;-60
2023/01/17 15:23:45;;;;;;;0.10;0.10;;;24.60;41.40;;;;;;4870874;29;45344;-56
2023/01/17 15:26:16;;;;;;;0.10;0.10;;;24.60;41.40;;;;;;4864519;29;45933;-62
2023/01/17 15:28:43;;;;;;;0.10;0.10;;;24.60;41.40;;;;;;4855790;29;45235;-54
2023/01/17 15:31:31;;;;;;;0.20;0.20;;;24.60;41.50;;;;;;4872978;29;46095;-58
2023/01/17 15:33:57;;;;;;;0.13;0.13;;;24.60;41.50;;;;;;4853215;29;45449;-54
2023/01/17 15:36:31;;;;;;;0.25;0.17;;;24.60;41.50;;;;;;4867758;29;45467;-58
2023/01/17 15:38:58;;;;;;;0.15;0.15;;;24.60;41.50;;;;;;4844776;29;46667;-54
2023/01/17 15:41:26;;;;;;;0.15;0.13;;;24.60;41.60;;;;;;4870249;29;45655;-54
2023/01/17 15:43:56;;;;;;;0.13;0.10;;;24.60;41.60;;;;;;4848717;29;46197;-52
2023/01/17 15:46:41;;;;;;;0.17;0.10;;;24.60;41.60;;;;;;4870899;29;45403;-52
2023/01/17 15:49:18;;;;;;;0.30;0.28;;;24.60;41.40;;;;;;4870195;29;45601;-58
2023/01/17 15:51:49;;;;;;;0.10;0.10;;;24.50;41.50;;;;;;4839536;29;45730;-52
2023/01/17 15:54:24;;;;;;;0.10;0.10;;;24.60;41.60;;;;;;4869833;29;45411;-56
2023/01/17 15:57:16;;;;;;;0.32;0.15;;;24.60;41.50;;;;;;4869515;29;45526;-56
2023/01/17 16:00:12;;;;;;;0.10;0.10;;;24.70;41.40;;;;;;4870148;29;47551;-55
2023/01/17 16:02:54;;;;;;;0.20;0.20;;;24.80;41.40;;;;;;4869113;29;45481;-58
2023/01/17 16:05:22;;;;;;;0.30;0.17;;;24.80;41.40;;;;;;4853755;29;44834;-53
2023/01/17 16:07:48;;;;;;;0.20;0.20;;;24.80;41.30;;;;;;4868724;29;45478;-54
2023/01/17 16:10:17;;;;;;;0.20;0.20;;;24.90;41.30;;;;;;4867339;29;45856;-55
2023/01/17 16:12:45;;;;;;;0.10;0.10;;;24.90;41.30;;;;;;4858526;29;45335;-58
2023/01/17 16:15:12;;;;;;;0.05;0.05;;;24.90;41.30;;;;;;4870740;29;45565;-53
2023/01/17 16:17:38;;;;;;;0.40;0.20;;;24.90;41.20;;;;;;4868147;29;46113;-56
2023/01/17 16:20:05;;;;;;;0.95;0.25;;;24.90;41.20;;;;;;4852444;29;46116;-56
2023/01/17 16:22:30;;;;;;;0.15;0.10;;;24.80;41.20;;;;;;4863995;29;44744;-57
2023/01/17 16:24:56;;;;;;;0.40;0.20;;;24.70;41.30;;;;;;4868795;29;45211;-52
2023/01/17 16:27:21;;;;;;;0.13;0.13;;;24.60;41.50;;;;;;4850804;29;45179;-56
2023/01/17 16:29:47;;;;;;;0.20;0.20;;;24.50;41.60;;;;;;4867866;29;45385;-53
2023/01/17 16:32:14;;;;;;;0.40;0.17;;;24.50;41.80;;;;;;4868368;29;45748;-55
2023/01/17 16:34:40;;;;;;;0.10;0.10;;;24.40;41.90;;;;;;4869493;29;46265;-58
2023/01/17 16:37:06;;;;;;;0.45;0.22;;;24.30;41.90;;;;;;4871122;29;45296;-54
2023/01/17 16:39:32;;;;;;;19.23;0.60;;;24.30;42.10;;;;;;4870783;29;46100;-62
2023/01/17 16:42:04;;;;;;;0.13;0.13;;;24.20;42.20;;;;;;4850275;29;45324;-62
2023/01/17 16:44:29;;;;;;;2.47;0.20;;;24.10;42.20;;;;;;4850734;29;45782;-62
2023/01/17 16:46:59;;;;;;;1.17;0.17;;;24.10;42.30;;;;;;4847806;29;45665;-62
2023/01/17 16:49:26;;;;;;;1.90;0.22;;;24.00;42.30;;;;;;4866439;29;45353;-62
2023/01/17 16:51:51;;;;;;;0.30;0.20;;;23.90;42.40;;;;;;4867865;29;45335;-62
2023/01/17 16:54:17;;;;;;;1.35;0.17;;;23.80;42.40;;;;;;4866394;29;46250;-62
2023/01/17 16:56:42;;;;;;;2.45;0.30;;;23.80;42.60;;;;;;4867632;29;45259;-62
2023/01/17 16:59:08;;;;;;;1.25;0.20;;;23.70;42.60;;;;;;4867687;29;46490;-62
2023/01/17 17:01:33;;;;;;;0.22;0.10;;;23.60;42.70;;;;;;4850236;29;46173;-62
2023/01/17 17:03:59;;;;;;;0.32;0.17;;;23.50;42.80;;;;;;4847525;29;45366;-62
2023/01/17 17:06:24;;;;;;;0.20;0.10;;;23.50;42.90;;;;;;4852382;29;45724;-62